createdAt,value
2022-11-23T00:01:24.179Z,3.80
2022-11-23T00:03:52.769Z,4.15
2022-11-23T00:06:21.528Z,3.65
2022-11-23T00:08:48.869Z,4.25
2022-11-23T00:11:16.070Z,3.50
2022-11-23T00:13:43.142Z,3.72
2022-11-23T00:16:15.866Z,4.53
2022-11-23T00:18:43.019Z,3.58
2022-11-23T00:21:11.516Z,3.92
2022-11-23T00:23:38.519Z,4.13
2022-11-23T00:26:05.849Z,3.60
2022-11-23T00:28:32.932Z,3.88
2022-11-23T00:30:59.604Z,4.07
2022-11-23T00:33:26.350Z,4.05
2022-11-23T00:36:04.880Z,4.55
2022-11-23T00:38:31.891Z,3.55
2022-11-23T00:41:03.688Z,4.07
2022-11-23T00:43:30.891Z,4.57
2022-11-23T00:46:24.494Z,4.75
2022-11-23T00:48:53.199Z,3.97
2022-11-23T00:51:25.158Z,4.00
2022-11-23T00:53:52.565Z,3.60
2022-11-23T00:56:19.963Z,4.43
2022-11-23T00:58:50.759Z,4.18
2022-11-23T01:01:18.638Z,4.20
2022-11-23T01:03:48.227Z,4.13
2022-11-23T01:06:20.135Z,3.53
2022-11-23T01:08:51.886Z,3.53
2022-11-23T01:11:19.795Z,4.18
2022-11-23T01:13:46.544Z,4.15
2022-11-23T01:16:28.491Z,4.28
2022-11-23T01:19:00.326Z,3.67
2022-11-23T01:21:28.506Z,4.22
2022-11-23T01:23:55.462Z,5.32
2022-11-23T01:26:22.391Z,4.50
2022-11-23T01:28:49.607Z,4.05
2022-11-23T01:31:19.554Z,5.15
2022-11-23T01:33:46.952Z,4.55
2022-11-23T01:36:21.838Z,5.13
2022-11-23T01:38:49.237Z,5.88
2022-11-23T01:41:21.950Z,5.38
2022-11-23T01:43:48.800Z,5.63
2022-11-23T01:46:15.590Z,5.85
2022-11-23T01:48:51.639Z,6.13
2022-11-23T01:51:21.890Z,6.38
2022-11-23T01:53:51.456Z,5.70
2022-11-23T01:56:21.240Z,5.88
2022-11-23T01:58:50.306Z,6.75
2022-11-23T02:03:44.787Z,5.38
2022-11-23T02:06:14.756Z,5.88
2022-11-23T02:08:42.337Z,5.95
2022-11-23T02:11:10.020Z,5.30
2022-11-23T02:13:36.783Z,6.15
2022-11-23T02:16:03.533Z,5.53
2022-11-23T02:18:31.902Z,5.72
2022-11-23T02:20:59.681Z,6.03
2022-11-23T02:24:00.288Z,5.95
2022-11-23T02:26:32.981Z,5.32
2022-11-23T02:29:10.074Z,5.63
2022-11-23T02:31:36.911Z,5.68
2022-11-23T02:34:03.638Z,4.80
2022-11-23T02:36:45.055Z,5.68
2022-11-23T02:41:48.786Z,5.75
2022-11-23T02:44:54.352Z,4.57
2022-11-23T02:47:21.016Z,6.13
2022-11-23T02:49:49.566Z,5.22
2022-11-23T02:52:17.349Z,5.32
2022-11-23T02:54:44.181Z,5.03
2022-11-23T02:57:11.165Z,4.70
2022-11-23T02:59:37.994Z,4.55
2022-11-23T03:02:05.906Z,4.40
2022-11-23T03:04:33.000Z,5.05
2022-11-23T03:06:59.663Z,4.47
2022-11-23T03:09:26.591Z,5.07
2022-11-23T03:11:54.265Z,5.57
2022-11-23T03:14:21.376Z,5.28
2022-11-23T03:16:48.009Z,5.07
2022-11-23T03:19:15.071Z,5.20
2022-11-23T03:21:41.875Z,5.57
2022-11-23T03:24:08.632Z,5.68
2022-11-23T03:26:35.280Z,5.43
2022-11-23T03:29:01.941Z,5.85
2022-11-23T03:31:28.602Z,5.35
2022-11-23T03:33:55.223Z,5.65
2022-11-23T03:36:21.885Z,5.43
2022-11-23T03:38:48.505Z,5.55
2022-11-23T03:41:15.157Z,5.70
2022-11-23T03:43:41.796Z,5.97
2022-11-23T03:46:08.449Z,5.05
2022-11-23T03:48:35.152Z,5.65
2022-11-23T03:51:01.943Z,5.75
2022-11-23T03:53:28.582Z,5.68
2022-11-23T03:55:57.580Z,4.88
2022-11-23T03:58:24.281Z,4.95
2022-11-23T04:00:51.247Z,4.50
2022-11-23T04:03:17.945Z,4.93
2022-11-23T04:05:44.617Z,4.38
2022-11-23T04:08:11.239Z,5.05
2022-11-23T04:10:37.891Z,5.78
2022-11-23T04:13:04.590Z,4.22
2022-11-23T04:15:31.288Z,5.70
2022-11-23T04:17:57.940Z,5.63
2022-11-23T04:20:24.638Z,4.88
2022-11-23T04:22:51.276Z,5.30
2022-11-23T04:25:17.982Z,4.97
2022-11-23T04:27:45.306Z,4.28
2022-11-23T04:30:12.686Z,4.97
2022-11-23T04:32:39.371Z,4.00
2022-11-23T04:35:08.612Z,4.05
2022-11-23T04:37:35.251Z,4.18
2022-11-23T04:40:02.116Z,5.88
2022-11-23T04:42:28.802Z,5.05
2022-11-23T04:44:55.596Z,5.50
2022-11-23T04:47:22.390Z,6.50
2022-11-23T04:49:49.023Z,5.90
2022-11-23T04:52:15.757Z,6.00
2022-11-23T04:54:42.488Z,6.05
2022-11-23T04:57:09.246Z,8.02
2022-11-23T04:59:35.884Z,6.38
2022-11-23T05:02:02.622Z,5.05
2022-11-23T05:04:29.252Z,5.15
2022-11-23T05:06:55.907Z,4.85
2022-11-23T05:09:22.522Z,7.45
2022-11-23T05:11:49.148Z,5.22
2022-11-23T05:14:15.835Z,4.78
2022-11-23T05:16:42.498Z,7.35
2022-11-23T05:19:09.420Z,4.97
2022-11-23T05:21:36.178Z,4.97
2022-11-23T05:24:02.924Z,6.40
2022-11-23T05:26:29.565Z,5.55
2022-11-23T05:28:56.212Z,5.18
2022-11-23T05:31:22.853Z,4.85
2022-11-23T05:33:49.553Z,5.22
2022-11-23T05:36:16.284Z,4.18
2022-11-23T05:38:43.040Z,5.07
2022-11-23T05:41:09.749Z,4.57
2022-11-23T05:43:36.444Z,5.13
2022-11-23T05:46:03.435Z,3.22
2022-11-23T05:48:30.044Z,4.53
2022-11-23T05:51:02.213Z,4.50
2022-11-23T05:53:31.683Z,4.45
2022-11-23T05:56:02.175Z,3.50
2022-11-23T05:58:29.357Z,4.57
2022-11-23T06:00:59.821Z,4.05
2022-11-23T06:03:27.121Z,4.30
2022-11-23T06:05:53.815Z,4.97
2022-11-23T06:08:20.665Z,4.45
2022-11-23T06:10:47.418Z,5.05
2022-11-23T06:13:14.033Z,4.93
2022-11-23T06:15:40.674Z,5.07
2022-11-23T06:18:07.337Z,3.83
2022-11-23T06:20:33.975Z,3.00
2022-11-23T06:23:00.627Z,3.75
2022-11-23T06:25:27.338Z,3.65
2022-11-23T06:27:54.906Z,3.70
2022-11-23T06:30:21.726Z,4.35
2022-11-23T06:32:48.362Z,3.70
2022-11-23T06:35:15.192Z,8.38
2022-11-23T06:37:41.839Z,6.90
2022-11-23T06:40:09.736Z,6.15
2022-11-23T06:42:39.519Z,4.50
2022-11-23T06:45:07.947Z,4.75
2022-11-23T06:47:34.647Z,4.38
2022-11-23T06:50:01.343Z,5.00
2022-11-23T06:52:27.971Z,5.43
2022-11-23T06:54:54.991Z,4.85
2022-11-23T06:57:21.618Z,4.43
2022-11-23T06:59:48.508Z,4.63
2022-11-23T07:02:15.488Z,4.35
2022-11-23T07:04:42.139Z,4.22
2022-11-23T07:07:09.271Z,3.97
2022-11-23T07:09:36.175Z,4.68
2022-11-23T07:12:03.032Z,4.50
2022-11-23T07:14:29.823Z,3.35
2022-11-23T07:16:56.533Z,3.08
2022-11-23T07:19:23.180Z,3.00
2022-11-23T07:21:49.880Z,4.22
2022-11-23T07:24:16.555Z,3.38
2022-11-23T07:26:43.231Z,4.55
2022-11-23T07:29:10.499Z,3.67
2022-11-23T07:31:37.224Z,3.35
2022-11-23T07:34:03.877Z,3.45
2022-11-23T07:36:30.654Z,3.42
2022-11-23T07:38:57.332Z,3.08
2022-11-23T07:41:24.026Z,5.60
2022-11-23T07:43:51.150Z,5.50
2022-11-23T07:46:17.809Z,2.83
2022-11-23T07:48:44.440Z,2.92
2022-11-23T07:51:11.144Z,5.78
2022-11-23T07:53:37.825Z,4.20
2022-11-23T07:56:04.771Z,5.75
2022-11-23T07:58:33.090Z,7.35
2022-11-23T08:00:59.804Z,4.68
2022-11-23T08:03:28.244Z,5.07
2022-11-23T08:08:22.222Z,4.47
2022-11-23T08:10:53.361Z,5.25
2022-11-23T08:13:21.892Z,4.53
2022-11-23T08:15:54.443Z,5.00
2022-11-23T08:18:22.127Z,4.35
2022-11-23T08:20:48.793Z,4.00
2022-11-23T08:23:15.515Z,4.45
2022-11-23T08:25:42.206Z,5.18
2022-11-23T08:28:08.853Z,3.95
2022-11-23T08:30:35.732Z,4.65
2022-11-23T08:33:09.163Z,3.22
2022-11-23T08:35:37.044Z,5.25
2022-11-23T08:38:04.594Z,3.33
2022-11-23T08:40:31.596Z,4.57
2022-11-23T08:42:58.325Z,4.57
2022-11-23T08:45:25.199Z,4.50
2022-11-23T08:47:53.013Z,3.50
2022-11-23T08:50:20.592Z,4.10
2022-11-23T08:52:47.246Z,2.95
2022-11-23T08:55:14.128Z,3.28
2022-11-23T08:57:40.746Z,4.10
2022-11-23T09:00:08.263Z,3.38
2022-11-23T09:02:34.900Z,4.63
2022-11-23T09:05:01.510Z,3.97
2022-11-23T09:07:28.256Z,3.72
2022-11-23T09:09:54.938Z,4.38
2022-11-23T09:12:21.614Z,4.72
2022-11-23T09:14:48.307Z,4.30
2022-11-23T09:17:14.926Z,4.50
2022-11-23T09:19:41.611Z,3.95
2022-11-23T09:22:08.336Z,4.45
2022-11-23T09:24:35.354Z,4.28
2022-11-23T09:27:02.283Z,4.85
2022-11-23T09:29:28.977Z,4.22
2022-11-23T09:31:55.685Z,3.95
2022-11-23T09:34:23.116Z,3.50
2022-11-23T09:36:49.751Z,4.43
2022-11-23T09:39:16.417Z,4.18
2022-11-23T09:42:04.629Z,3.90
2022-11-23T09:44:55.771Z,3.85
2022-11-23T09:47:40.828Z,4.90
2022-11-23T09:50:07.459Z,4.85
2022-11-23T09:52:35.746Z,4.60
2022-11-23T09:55:37.890Z,5.05
2022-11-23T09:58:06.148Z,4.95
2022-11-23T10:00:44.214Z,5.00
2022-11-23T10:03:15.900Z,5.40
2022-11-23T10:05:47.596Z,5.18
2022-11-23T10:08:35.201Z,7.72
2022-11-23T10:11:35.168Z,5.25
2022-11-23T10:16:52.735Z,4.07
2022-11-23T10:20:04.454Z,5.18
2022-11-23T10:22:39.466Z,5.68
2022-11-23T10:25:16.075Z,5.03
2022-11-23T10:27:44.814Z,18.50
2022-11-23T10:30:19.336Z,4.55
2022-11-23T10:33:10.225Z,5.65
2022-11-23T10:35:38.371Z,4.70
2022-11-23T10:38:19.091Z,4.93
2022-11-23T10:41:02.437Z,5.60
2022-11-23T10:43:38.936Z,4.80
2022-11-23T10:46:28.010Z,5.35
2022-11-23T10:48:55.607Z,11.75
2022-11-23T10:51:30.567Z,9.02
2022-11-23T10:54:05.103Z,4.53
2022-11-23T10:56:33.571Z,5.00
2022-11-23T10:59:00.472Z,5.25
2022-11-23T11:01:29.710Z,4.63
2022-11-23T11:04:03.857Z,5.72
2022-11-23T11:06:33.683Z,6.03
2022-11-23T11:09:20.789Z,8.05
2022-11-23T11:12:09.448Z,5.03
2022-11-23T11:14:42.954Z,4.10
2022-11-23T11:17:26.211Z,5.70
2022-11-23T11:19:52.813Z,13.27
2022-11-23T11:22:47.915Z,6.20
2022-11-23T11:25:35.164Z,5.90
2022-11-23T11:28:04.413Z,8.45
2022-11-23T11:30:50.920Z,5.18
2022-11-23T11:33:34.918Z,6.80
2022-11-23T11:36:03.280Z,8.07
2022-11-23T11:38:37.660Z,7.30
2022-11-23T11:41:12.298Z,6.30
2022-11-23T11:44:03.249Z,7.55
2022-11-23T11:46:36.210Z,4.57
2022-11-23T11:49:19.557Z,6.93
2022-11-23T11:51:59.807Z,4.53
2022-11-23T11:55:04.790Z,5.38
2022-11-23T11:57:44.638Z,8.32
2022-11-23T12:00:15.631Z,5.72
2022-11-23T12:02:57.400Z,6.53
2022-11-23T12:05:25.755Z,5.68
2022-11-23T12:08:33.504Z,5.68
2022-11-23T12:11:02.340Z,3.22
2022-11-23T12:13:36.864Z,4.30
2022-11-23T12:16:09.481Z,5.03
2022-11-23T12:18:44.496Z,5.75
2022-11-23T12:21:42.016Z,3.40
2022-11-23T12:24:27.489Z,2.83
2022-11-23T12:27:28.023Z,2.55
2022-11-23T12:30:03.463Z,2.53
2022-11-23T12:32:42.112Z,2.50
2022-11-23T12:35:24.677Z,2.55
2022-11-23T12:38:24.067Z,3.60
2022-11-23T12:40:56.457Z,3.55
2022-11-23T12:43:32.233Z,4.00
2022-11-23T12:46:14.025Z,3.05
2022-11-23T12:48:56.778Z,3.58
2022-11-23T12:51:55.783Z,2.30
2022-11-23T12:54:44.847Z,3.03
2022-11-23T12:57:20.946Z,2.65
2022-11-23T12:59:55.279Z,2.00
2022-11-23T13:02:49.520Z,2.80
2022-11-23T13:05:53.914Z,1.80
2022-11-23T13:08:54.360Z,3.20
2022-11-23T13:11:55.672Z,4.57
2022-11-23T13:14:37.358Z,5.28
2022-11-23T13:17:04.079Z,6.63
2022-11-23T13:19:52.395Z,3.78
2022-11-23T13:22:20.869Z,2.58
2022-11-23T13:25:12.592Z,3.50
2022-11-23T13:27:55.011Z,4.85
2022-11-23T13:30:59.270Z,5.35
2022-11-23T13:33:32.995Z,3.20
2022-11-23T13:36:09.575Z,3.90
2022-11-23T13:38:42.540Z,9.38
2022-11-23T13:41:33.910Z,6.38
2022-11-23T13:44:18.619Z,2.72
2022-11-23T13:47:08.092Z,3.15
2022-11-23T13:49:42.725Z,3.17
2022-11-23T13:52:21.403Z,3.42
2022-11-23T13:55:13.188Z,3.00
2022-11-23T13:57:46.667Z,3.63
2022-11-23T14:00:48.755Z,2.50
2022-11-23T14:03:52.890Z,2.15
2022-11-23T14:06:34.503Z,2.60
2022-11-23T14:09:40.258Z,4.43
2022-11-23T14:12:06.849Z,2.50
2022-11-23T14:14:42.818Z,2.08
2022-11-23T14:17:46.884Z,2.13
2022-11-23T14:20:28.610Z,2.67
2022-11-23T14:23:40.065Z,3.20
2022-11-23T14:26:18.829Z,17.48
2022-11-23T14:29:19.724Z,15.35
2022-11-23T14:32:17.402Z,2.50
2022-11-23T14:35:05.011Z,2.10
2022-11-23T14:40:38.348Z,2.53
2022-11-23T14:43:05.428Z,3.38
2022-11-23T14:45:33.917Z,9.30
2022-11-23T14:48:32.709Z,7.47
2022-11-23T14:51:06.108Z,3.08
2022-11-23T14:53:45.370Z,1.30
2022-11-23T14:56:45.252Z,2.35
2022-11-23T14:59:18.159Z,1.48
2022-11-23T15:01:51.272Z,1.70
2022-11-23T15:04:37.207Z,2.40
2022-11-23T15:07:10.936Z,1.65
2022-11-23T15:09:56.180Z,2.10
2022-11-23T15:12:26.958Z,1.90
2022-11-23T15:14:57.353Z,1.58
2022-11-23T15:17:24.386Z,1.70
2022-11-23T15:20:12.327Z,1.08
2022-11-23T15:22:43.279Z,1.27
2022-11-23T15:25:15.929Z,1.75
2022-11-23T15:27:42.829Z,3.80
2022-11-23T15:30:20.380Z,13.50
2022-11-23T15:33:05.545Z,1.40
2022-11-23T15:35:34.782Z,2.22
2022-11-23T15:40:31.274Z,2.75
2022-11-23T15:42:58.112Z,3.00
2022-11-23T15:45:35.742Z,2.47
2022-11-23T15:48:32.069Z,2.13
2022-11-23T15:51:00.732Z,4.65
2022-11-23T15:53:30.071Z,1.77
2022-11-23T15:56:02.495Z,1.50
2022-11-23T15:58:29.759Z,2.47
2022-11-23T16:01:07.452Z,1.85
2022-11-23T16:03:41.166Z,3.42
2022-11-23T16:06:13.916Z,2.30
2022-11-23T16:08:41.360Z,2.08
2022-11-23T16:11:32.363Z,3.08
2022-11-23T16:14:19.795Z,2.00
2022-11-23T16:16:48.395Z,1.77
2022-11-23T16:19:33.135Z,2.15
2022-11-23T16:22:05.343Z,2.80
2022-11-23T16:24:34.251Z,2.50
2022-11-23T16:27:02.479Z,3.10
2022-11-23T16:29:34.294Z,2.45
2022-11-23T16:32:02.957Z,3.25
2022-11-23T16:34:30.027Z,1.90
2022-11-23T16:36:57.204Z,2.10
2022-11-23T16:39:24.531Z,2.10
2022-11-23T16:41:52.215Z,1.60
2022-11-23T16:44:19.619Z,2.25
2022-11-23T16:46:47.759Z,2.03
2022-11-23T16:49:19.046Z,3.63
2022-11-23T16:51:46.380Z,2.40
2022-11-23T16:54:14.728Z,2.60
2022-11-23T16:56:43.025Z,2.72
2022-11-23T16:59:16.650Z,3.10
2022-11-23T17:01:45.948Z,2.83
2022-11-23T17:04:15.113Z,2.90
2022-11-23T17:11:40.224Z,2.47
2022-11-23T17:14:07.244Z,2.78
2022-11-23T17:16:34.461Z,2.60
2022-11-23T17:19:01.166Z,2.30
2022-11-23T17:21:27.832Z,3.03
2022-11-23T17:23:54.540Z,2.78
2022-11-23T17:26:34.408Z,2.72
2022-11-23T17:29:04.898Z,2.40
2022-11-23T17:31:31.879Z,2.90
2022-11-23T17:33:58.569Z,10.27
2022-11-23T17:36:25.892Z,5.60
2022-11-23T17:38:52.799Z,2.72
2022-11-23T17:41:19.475Z,4.93
2022-11-23T17:43:46.166Z,4.78
2022-11-23T17:46:22.492Z,18.60
2022-11-23T17:48:55.742Z,7.15
2022-11-23T17:51:22.838Z,3.05
2022-11-23T17:53:49.511Z,4.03
2022-11-23T17:56:21.760Z,4.90
2022-11-23T17:58:49.105Z,1.80
2022-11-23T18:01:17.182Z,1.35
2022-11-23T18:03:44.828Z,2.60
2022-11-23T18:06:23.156Z,3.47
2022-11-23T18:08:50.984Z,2.92
2022-11-23T18:11:18.068Z,2.40
2022-11-23T18:13:45.095Z,2.92
2022-11-23T18:16:11.856Z,3.05
2022-11-23T18:18:38.911Z,3.15
2022-11-23T18:21:06.231Z,3.15
2022-11-23T18:23:33.563Z,4.13
2022-11-23T18:26:10.744Z,3.72
2022-11-23T18:28:37.883Z,3.90
2022-11-23T18:31:04.638Z,2.83
2022-11-23T18:33:31.384Z,3.25
2022-11-23T18:36:04.922Z,2.65
2022-11-23T18:38:32.771Z,10.00
2022-11-23T18:40:59.463Z,2.85
2022-11-23T18:43:26.158Z,6.30
2022-11-23T18:45:53.225Z,6.18
2022-11-23T18:48:20.075Z,2.40
2022-11-23T18:50:46.981Z,5.45
2022-11-23T18:53:13.676Z,6.68
2022-11-23T18:55:40.310Z,5.53
2022-11-23T18:58:07.248Z,4.20
2022-11-23T19:00:33.950Z,2.97
2022-11-23T19:03:02.420Z,3.92
2022-11-23T19:05:35.769Z,2.95
2022-11-23T19:08:04.702Z,4.10
2022-11-23T19:10:33.125Z,3.70
2022-11-23T19:13:05.084Z,3.70
2022-11-23T19:15:32.610Z,4.05
2022-11-23T19:17:59.522Z,4.35
2022-11-23T19:20:26.270Z,4.07
2022-11-23T19:22:53.138Z,3.92
2022-11-23T19:25:19.837Z,4.20
2022-11-23T19:27:48.848Z,4.30
2022-11-23T19:30:16.019Z,5.72
2022-11-23T19:32:42.618Z,5.22
2022-11-23T19:35:09.446Z,12.98
2022-11-23T19:37:36.967Z,11.30
2022-11-23T19:40:04.371Z,5.88
2022-11-23T19:42:31.014Z,12.40
2022-11-23T19:44:57.611Z,5.72
2022-11-23T19:47:24.318Z,10.02
2022-11-23T19:49:50.959Z,11.27
2022-11-23T19:52:17.643Z,14.20
2022-11-23T19:54:44.283Z,10.95
2022-11-23T19:57:11.030Z,11.55
2022-11-23T19:59:37.672Z,15.88
2022-11-23T20:02:04.411Z,15.52
2022-11-23T20:04:31.245Z,14.23
2022-11-23T20:06:57.866Z,12.35
2022-11-23T20:09:24.562Z,14.88
2022-11-23T20:11:51.907Z,22.13
2022-11-23T20:14:18.955Z,9.30
2022-11-23T20:16:45.812Z,5.93
2022-11-23T20:19:12.530Z,12.40
2022-11-23T20:21:39.270Z,13.70
2022-11-23T20:24:12.132Z,12.32
2022-11-23T20:26:39.034Z,13.23
2022-11-23T20:29:06.965Z,11.45
2022-11-23T20:31:34.480Z,17.30
2022-11-23T20:34:02.599Z,13.32
2022-11-23T20:36:36.827Z,9.73
2022-11-23T20:39:08.453Z,12.93
2022-11-23T20:41:36.317Z,19.75
2022-11-23T20:44:10.687Z,14.20
2022-11-23T20:47:00.650Z,8.82
2022-11-23T20:49:24.069Z,11.90
2022-11-23T20:51:50.706Z,14.63
2022-11-23T20:54:17.575Z,25.88
2022-11-23T20:56:44.219Z,9.30
2022-11-23T20:59:12.021Z,5.47
2022-11-23T21:01:40.716Z,9.85
2022-11-23T21:04:09.091Z,10.60
2022-11-23T21:06:39.306Z,8.13
2022-11-23T21:09:07.269Z,15.52
2022-11-23T21:11:52.425Z,8.75
2022-11-23T21:14:20.960Z,10.70
2022-11-23T21:16:55.999Z,5.85
2022-11-23T21:21:50.556Z,4.72
2022-11-23T21:24:17.714Z,2.83
2022-11-23T21:26:44.614Z,2.08
2022-11-23T21:29:11.651Z,3.70
2022-11-23T21:31:43.496Z,3.08
2022-11-23T21:34:17.716Z,3.85
2022-11-23T21:36:44.615Z,3.28
2022-11-23T21:39:12.097Z,4.13
2022-11-23T21:41:39.204Z,5.90
2022-11-23T21:44:06.988Z,5.38
2022-11-23T21:46:33.832Z,4.35
2022-11-23T21:49:01.113Z,5.80
2022-11-23T21:51:30.491Z,4.07
2022-11-23T21:53:58.308Z,4.00
2022-11-23T21:56:25.196Z,4.82
2022-11-23T21:58:52.401Z,6.75
2022-11-23T22:01:24.265Z,6.88
2022-11-23T22:03:53.050Z,4.15
2022-11-23T22:06:20.887Z,4.30
2022-11-23T22:08:49.764Z,4.50
2022-11-23T22:11:19.195Z,3.65
2022-11-23T22:13:46.046Z,4.18
2022-11-23T22:16:14.753Z,4.68
2022-11-23T22:18:41.554Z,4.85
2022-11-23T22:21:08.443Z,3.47
2022-11-23T22:23:35.684Z,4.53
2022-11-23T22:26:06.545Z,4.63
2022-11-23T22:28:37.497Z,5.40
2022-11-23T22:31:05.386Z,5.18
2022-11-23T22:33:32.616Z,5.30
2022-11-23T22:36:04.737Z,4.50
2022-11-23T22:38:34.157Z,5.43
2022-11-23T22:41:05.816Z,5.95
2022-11-23T22:43:32.517Z,5.10
2022-11-23T22:46:05.692Z,5.53
2022-11-23T22:48:35.563Z,4.13
2022-11-23T22:51:02.526Z,4.07
2022-11-23T22:53:32.251Z,6.22
2022-11-23T22:56:04.427Z,5.28
2022-11-23T22:58:32.167Z,5.18
2022-11-23T23:01:10.245Z,4.82
2022-11-23T23:03:37.768Z,3.78
2022-11-23T23:06:05.095Z,4.28
2022-11-23T23:08:32.362Z,4.82
2022-11-23T23:11:07.924Z,5.25
2022-11-23T23:13:34.845Z,5.13
2022-11-23T23:16:07.098Z,5.38
2022-11-23T23:18:34.331Z,5.00
2022-11-23T23:21:21.454Z,5.25
2022-11-23T23:23:50.778Z,5.10
2022-11-23T23:26:20.134Z,5.95
2022-11-23T23:28:47.279Z,6.82
2022-11-23T23:31:16.246Z,5.90
2022-11-23T23:33:44.360Z,5.40
2022-11-23T23:36:17.975Z,4.90
2022-11-23T23:38:44.789Z,4.90
2022-11-23T23:41:12.485Z,4.90
2022-11-23T23:43:39.540Z,4.85
2022-11-23T23:46:08.869Z,3.92
2022-11-23T23:48:37.030Z,4.63
2022-11-23T23:51:07.246Z,4.43
2022-11-23T23:53:34.773Z,4.28
2022-11-23T23:56:04.549Z,4.28
2022-11-23T23:58:31.832Z,4.78
